createdAt,value
2022-11-05T00:00:36.449Z,9.30
2022-11-05T00:03:39.893Z,9.30
2022-11-05T00:06:29.282Z,9.30
2022-11-05T00:09:14.752Z,9.40
2022-11-05T00:12:00.132Z,9.40
2022-11-05T00:14:45.699Z,9.40
2022-11-05T00:17:12.743Z,9.30
2022-11-05T00:19:39.803Z,9.40
2022-11-05T00:22:25.073Z,9.30
2022-11-05T00:25:10.521Z,9.40
2022-11-05T00:27:37.608Z,9.40
2022-11-05T00:30:07.281Z,9.40
2022-11-05T00:32:36.628Z,9.50
2022-11-05T00:35:05.244Z,9.40
2022-11-05T00:37:32.241Z,9.50
2022-11-05T00:39:59.409Z,9.50
2022-11-05T00:42:44.737Z,9.40
2022-11-05T00:45:11.937Z,9.40
2022-11-05T00:47:58.482Z,9.50
2022-11-05T00:50:25.771Z,9.40
2022-11-05T00:52:59.702Z,9.50
2022-11-05T00:55:38.595Z,9.50
2022-11-05T00:58:15.103Z,9.40
2022-11-05T01:00:53.351Z,9.50
2022-11-05T01:03:35.860Z,9.40
2022-11-05T01:06:10.993Z,9.40
2022-11-05T01:08:39.058Z,9.50
2022-11-05T01:11:34.327Z,9.50
2022-11-05T01:14:05.253Z,9.50
2022-11-05T01:16:32.699Z,9.40
2022-11-05T01:19:01.037Z,9.50
2022-11-05T01:21:28.202Z,9.50
2022-11-05T01:23:55.274Z,9.60
2022-11-05T01:26:22.783Z,9.50
2022-11-05T01:29:00.504Z,9.50
2022-11-05T01:31:28.681Z,9.50
2022-11-05T01:33:55.817Z,9.60
2022-11-05T01:36:22.880Z,9.60
2022-11-05T01:38:49.946Z,9.60
2022-11-05T01:41:16.974Z,9.50
2022-11-05T01:43:49.946Z,9.40
2022-11-05T01:46:27.675Z,9.30
2022-11-05T01:49:02.941Z,9.10
2022-11-05T01:51:31.082Z,9.00
2022-11-05T01:54:03.736Z,8.90
2022-11-05T01:56:40.954Z,8.90
2022-11-05T01:59:30.635Z,8.90
2022-11-05T02:01:58.618Z,8.90
2022-11-05T02:04:40.427Z,8.90
2022-11-05T02:07:09.378Z,8.90
2022-11-05T02:10:05.301Z,8.90
2022-11-05T02:12:33.676Z,8.90
2022-11-05T02:15:00.728Z,8.90
2022-11-05T02:17:40.145Z,8.90
2022-11-05T02:20:51.992Z,9.00
2022-11-05T02:23:54.478Z,9.00
2022-11-05T02:27:07.340Z,9.00
2022-11-05T02:29:58.604Z,9.10
2022-11-05T02:32:34.631Z,9.10
2022-11-05T02:35:15.382Z,9.20
2022-11-05T02:37:52.686Z,9.20
2022-11-05T02:40:27.032Z,9.20
2022-11-05T02:43:28.176Z,9.30
2022-11-05T02:47:12.901Z,9.30
2022-11-05T02:49:53.084Z,9.30
2022-11-05T02:52:41.836Z,9.20
2022-11-05T02:55:59.465Z,9.20
2022-11-05T02:58:30.623Z,9.20
2022-11-05T03:01:02.172Z,9.30
2022-11-05T03:03:51.420Z,9.30
2022-11-05T03:06:44.251Z,9.40
2022-11-05T03:09:39.248Z,9.40
2022-11-05T03:12:27.779Z,9.40
2022-11-05T03:15:25.472Z,9.30
2022-11-05T03:18:13.262Z,9.30
2022-11-05T03:21:03.337Z,9.30
2022-11-05T03:23:46.850Z,9.30
2022-11-05T03:26:27.969Z,9.20
2022-11-05T03:29:06.845Z,9.20
2022-11-05T03:31:36.528Z,9.30
2022-11-05T03:34:06.738Z,9.40
2022-11-05T03:36:41.252Z,9.40
2022-11-05T03:39:22.359Z,9.40
2022-11-05T03:41:52.437Z,9.40
2022-11-05T03:44:27.856Z,9.40
2022-11-05T03:47:02.769Z,9.50
2022-11-05T03:49:39.384Z,9.30
2022-11-05T03:52:22.672Z,9.40
2022-11-05T03:54:49.924Z,9.40
2022-11-05T03:57:23.850Z,9.40
2022-11-05T03:59:51.835Z,9.40
2022-11-05T04:02:22.792Z,9.50
2022-11-05T04:04:49.941Z,9.40
2022-11-05T04:07:35.750Z,9.40
2022-11-05T04:10:20.995Z,9.50
2022-11-05T04:13:07.196Z,9.40
2022-11-05T04:15:54.226Z,9.40
2022-11-05T04:18:21.849Z,9.40
2022-11-05T04:21:07.261Z,9.40
2022-11-05T04:23:53.137Z,9.50
2022-11-05T04:26:23.558Z,9.50
2022-11-05T04:29:10.458Z,9.40
2022-11-05T04:31:38.506Z,9.50
2022-11-05T04:34:06.095Z,9.50
2022-11-05T04:36:33.307Z,9.50
2022-11-05T04:39:00.425Z,9.40
2022-11-05T04:41:27.619Z,9.40
2022-11-05T04:43:55.034Z,9.40
2022-11-05T04:46:22.109Z,9.40
2022-11-05T04:48:49.172Z,9.40
2022-11-05T04:51:16.226Z,9.40
2022-11-05T04:53:43.338Z,9.40
2022-11-05T04:56:28.626Z,9.40
2022-11-05T04:58:55.675Z,9.40
2022-11-05T05:01:25.464Z,9.40
2022-11-05T05:03:54.467Z,9.30
2022-11-05T05:06:22.653Z,9.30
2022-11-05T05:08:51.839Z,9.40
2022-11-05T05:11:22.134Z,9.30
2022-11-05T05:13:50.159Z,9.40
2022-11-05T05:16:24.205Z,9.40
2022-11-05T05:18:52.142Z,9.40
2022-11-05T05:21:40.406Z,9.30
2022-11-05T05:24:15.506Z,9.30
2022-11-05T05:26:45.702Z,9.30
2022-11-05T05:29:14.067Z,9.30
2022-11-05T05:31:41.525Z,9.30
2022-11-05T05:34:12.876Z,9.40
2022-11-05T05:36:40.315Z,9.30
2022-11-05T05:39:11.201Z,9.40
2022-11-05T05:41:38.507Z,9.30
2022-11-05T05:44:06.573Z,9.30
2022-11-05T05:46:33.934Z,9.20
2022-11-05T05:49:01.039Z,9.20
2022-11-05T05:51:28.009Z,9.20
2022-11-05T05:53:55.257Z,9.20
2022-11-05T05:56:22.484Z,9.30
2022-11-05T05:58:49.594Z,9.30
2022-11-05T06:01:19.606Z,9.30
2022-11-05T06:03:48.740Z,9.30
2022-11-05T06:06:21.271Z,9.30
2022-11-05T06:08:49.091Z,9.30
2022-11-05T06:11:16.488Z,9.20
2022-11-05T06:13:43.549Z,9.20
2022-11-05T06:16:11.193Z,9.30
2022-11-05T06:18:38.599Z,9.30
2022-11-05T06:21:10.071Z,9.20
2022-11-05T06:23:39.756Z,9.10
2022-11-05T06:26:14.053Z,9.10
2022-11-05T06:28:42.147Z,9.10
2022-11-05T06:31:14.335Z,9.20
2022-11-05T06:33:41.485Z,9.20
2022-11-05T06:36:14.498Z,9.10
2022-11-05T06:38:41.668Z,9.20
2022-11-05T06:41:10.567Z,9.30
2022-11-05T06:43:38.668Z,9.40
2022-11-05T06:46:06.129Z,9.40
2022-11-05T06:48:33.544Z,9.40
2022-11-05T06:51:00.575Z,9.50
2022-11-05T06:53:27.797Z,9.40
2022-11-05T06:55:55.059Z,9.30
2022-11-05T06:58:22.320Z,9.40
2022-11-05T07:00:50.156Z,9.50
2022-11-05T07:03:17.243Z,9.50
2022-11-05T07:05:48.497Z,9.50
2022-11-05T07:08:16.081Z,9.60
2022-11-05T07:10:43.433Z,9.60
2022-11-05T07:13:11.040Z,9.70
2022-11-05T07:15:38.583Z,9.70
2022-11-05T07:18:07.493Z,9.70
2022-11-05T07:20:35.315Z,9.60
2022-11-05T07:23:10.207Z,9.60
2022-11-05T07:25:37.840Z,9.60
2022-11-05T07:28:05.284Z,9.60
2022-11-05T07:30:34.536Z,9.60
2022-11-05T07:33:01.978Z,9.70
2022-11-05T07:35:29.154Z,9.80
2022-11-05T07:37:56.416Z,9.70
2022-11-05T07:40:27.632Z,9.70
2022-11-05T07:42:59.235Z,9.60
2022-11-05T07:45:29.154Z,9.50
2022-11-05T07:47:59.526Z,9.60
2022-11-05T07:50:31.412Z,9.60
2022-11-05T07:53:14.435Z,9.90
2022-11-05T07:55:42.329Z,10.00
2022-11-05T07:58:10.935Z,10.10
2022-11-05T08:00:38.438Z,10.10
2022-11-05T08:03:10.512Z,10.20
2022-11-05T08:05:40.977Z,10.20
2022-11-05T08:08:12.955Z,10.20
2022-11-05T08:10:40.790Z,10.50
2022-11-05T08:13:09.056Z,10.40
2022-11-05T08:15:36.752Z,10.50
2022-11-05T08:18:13.932Z,10.50
2022-11-05T08:20:42.953Z,10.50
2022-11-05T08:23:10.993Z,10.70
2022-11-05T08:25:38.369Z,10.90
2022-11-05T08:28:12.903Z,11.00
2022-11-05T08:30:40.700Z,11.00
2022-11-05T08:33:14.335Z,11.00
2022-11-05T08:35:42.241Z,10.90
2022-11-05T08:38:16.199Z,10.70
2022-11-05T08:40:45.364Z,10.60
2022-11-05T08:43:14.891Z,10.60
2022-11-05T08:45:42.484Z,10.70
2022-11-05T08:48:15.076Z,10.80
2022-11-05T08:50:43.149Z,11.00
2022-11-05T08:53:11.344Z,11.00
2022-11-05T08:55:39.160Z,10.70
2022-11-05T08:58:12.631Z,10.70
2022-11-05T09:00:40.224Z,10.60
2022-11-05T09:03:09.284Z,11.00
2022-11-05T09:05:39.680Z,11.10
2022-11-05T09:08:18.828Z,11.40
2022-11-05T09:10:47.891Z,11.60
2022-11-05T09:13:19.504Z,11.60
2022-11-05T09:15:49.262Z,11.20
2022-11-05T09:18:17.755Z,11.60
2022-11-05T09:20:45.336Z,11.60
2022-11-05T09:23:14.982Z,11.50
2022-11-05T09:25:42.587Z,11.40
2022-11-05T09:28:21.336Z,11.30
2022-11-05T09:30:51.052Z,11.30
2022-11-05T09:33:24.703Z,11.30
2022-11-05T09:35:53.653Z,11.10
2022-11-05T09:38:20.885Z,11.00
2022-11-05T09:41:08.889Z,11.30
2022-11-05T09:43:50.890Z,11.50
2022-11-05T09:46:26.004Z,11.60
2022-11-05T09:49:02.254Z,11.70
2022-11-05T09:51:29.798Z,11.70
2022-11-05T09:53:59.583Z,11.80
2022-11-05T09:56:37.463Z,11.80
2022-11-05T09:59:18.361Z,11.80
2022-11-05T10:01:46.952Z,11.80
2022-11-05T10:04:20.197Z,11.70
2022-11-05T10:06:55.809Z,11.50
2022-11-05T10:09:47.912Z,11.80
2022-11-05T10:12:35.557Z,11.40
2022-11-05T10:15:21.895Z,11.70
2022-11-05T10:17:56.667Z,11.60
2022-11-05T10:20:38.870Z,11.60
2022-11-05T10:23:15.587Z,11.70
2022-11-05T10:26:06.744Z,11.60
2022-11-05T10:28:36.544Z,11.80
2022-11-05T10:31:11.122Z,11.90
2022-11-05T10:33:46.634Z,12.10
2022-11-05T10:36:32.039Z,12.20
2022-11-05T10:39:10.371Z,12.30
2022-11-05T10:42:24.204Z,12.40
2022-11-05T10:45:15.828Z,12.50
2022-11-05T10:47:52.540Z,12.30
2022-11-05T10:50:27.589Z,12.30
2022-11-05T10:53:03.079Z,12.40
2022-11-05T10:55:38.047Z,12.20
2022-11-05T10:58:34.791Z,12.90
2022-11-05T11:01:07.433Z,14.30
2022-11-05T11:03:40.701Z,15.30
2022-11-05T11:06:32.564Z,15.60
2022-11-05T11:09:03.845Z,15.30
2022-11-05T11:11:42.237Z,15.30
2022-11-05T11:14:12.845Z,16.00
2022-11-05T11:16:45.090Z,16.60
2022-11-05T11:19:25.671Z,15.10
2022-11-05T11:22:04.964Z,14.50
2022-11-05T11:24:41.176Z,14.80
2022-11-05T11:27:34.877Z,16.40
2022-11-05T11:30:04.900Z,17.40
2022-11-05T11:32:39.260Z,16.30
2022-11-05T11:35:17.990Z,15.30
2022-11-05T11:37:45.744Z,15.20
2022-11-05T11:40:30.769Z,14.30
2022-11-05T11:43:16.460Z,13.90
2022-11-05T11:45:52.218Z,13.40
2022-11-05T11:48:28.147Z,13.10
2022-11-05T11:50:56.367Z,12.90
2022-11-05T11:53:35.340Z,12.70
2022-11-05T11:56:17.910Z,12.40
2022-11-05T11:58:54.994Z,12.30
2022-11-05T12:02:02.212Z,12.30
2022-11-05T12:05:01.795Z,14.40
2022-11-05T12:07:50.991Z,14.40
2022-11-05T12:10:33.202Z,15.80
2022-11-05T12:13:18.693Z,17.60
2022-11-05T12:15:57.353Z,18.90
2022-11-05T12:18:48.965Z,20.00
2022-11-05T12:21:52.196Z,20.50
2022-11-05T12:24:38.365Z,21.90
2022-11-05T12:28:05.486Z,21.70
2022-11-05T12:30:43.738Z,21.50
2022-11-05T12:34:04.770Z,22.10
2022-11-05T12:36:44.739Z,20.20
2022-11-05T12:39:43.815Z,17.10
2022-11-05T12:42:54.342Z,15.80
2022-11-05T12:45:56.071Z,15.80
2022-11-05T12:48:56.573Z,19.40
2022-11-05T12:52:03.413Z,21.80
2022-11-05T12:55:04.821Z,22.70
2022-11-05T12:57:37.342Z,22.80
2022-11-05T13:00:21.996Z,22.70
2022-11-05T13:03:19.301Z,24.10
2022-11-05T13:06:12.618Z,25.50
2022-11-05T13:09:15.548Z,24.10
2022-11-05T13:11:49.770Z,24.40
2022-11-05T13:14:38.142Z,23.60
2022-11-05T13:17:22.770Z,24.10
2022-11-05T13:20:17.555Z,21.30
2022-11-05T13:23:14.240Z,20.80
2022-11-05T13:25:49.750Z,19.90
2022-11-05T13:28:35.105Z,20.90
2022-11-05T13:31:08.261Z,21.40
2022-11-05T13:33:40.479Z,21.80
2022-11-05T13:36:49.725Z,20.80
2022-11-05T13:39:35.947Z,19.70
2022-11-05T13:42:11.891Z,18.20
2022-11-05T13:45:19.912Z,16.90
2022-11-05T13:47:53.107Z,15.00
2022-11-05T13:50:50.258Z,14.60
2022-11-05T13:53:48.140Z,13.80
2022-11-05T13:56:44.029Z,13.20
2022-11-05T13:59:38.519Z,12.80
2022-11-05T14:02:17.894Z,12.70
2022-11-05T14:05:00.962Z,12.80
2022-11-05T14:07:33.372Z,12.70
2022-11-05T14:10:39.825Z,12.60
2022-11-05T14:13:31.667Z,12.70
2022-11-05T14:16:10.802Z,12.60
2022-11-05T14:18:49.916Z,12.50
2022-11-05T14:21:26.346Z,12.50
2022-11-05T14:24:17.384Z,12.40
2022-11-05T14:26:44.560Z,12.50
2022-11-05T14:29:22.986Z,12.80
2022-11-05T14:32:09.676Z,13.10
2022-11-05T14:34:49.212Z,13.30
2022-11-05T14:37:34.389Z,13.30
2022-11-05T14:40:42.444Z,13.00
2022-11-05T14:43:24.303Z,12.60
2022-11-05T14:46:00.830Z,12.40
2022-11-05T14:48:44.124Z,12.20
2022-11-05T14:51:42.641Z,12.10
2022-11-05T14:54:45.373Z,12.00
2022-11-05T14:57:42.464Z,11.80
2022-11-05T15:00:28.418Z,11.70
2022-11-05T15:03:34.334Z,11.60
2022-11-05T15:06:31.336Z,11.50
2022-11-05T15:09:16.231Z,11.30
2022-11-05T15:11:56.559Z,11.10
2022-11-05T15:14:34.963Z,11.00
2022-11-05T15:17:47.916Z,10.80
2022-11-05T15:20:27.425Z,10.70
2022-11-05T15:23:00.313Z,10.50
2022-11-05T15:25:52.749Z,10.40
2022-11-05T15:28:37.021Z,10.30
2022-11-05T15:31:17.591Z,10.20
2022-11-05T15:33:47.739Z,10.10
2022-11-05T15:36:29.291Z,9.90
2022-11-05T15:39:23.325Z,9.80
2022-11-05T15:41:46.799Z,9.80
2022-11-05T15:44:34.712Z,9.60
2022-11-05T15:47:24.471Z,9.50
2022-11-05T15:50:15.719Z,9.40
2022-11-05T15:52:52.839Z,9.30
2022-11-05T15:55:23.709Z,9.20
2022-11-05T15:58:06.804Z,9.20
2022-11-05T16:00:36.539Z,9.10
2022-11-05T16:03:18.238Z,9.10
2022-11-05T16:05:48.453Z,9.00
2022-11-05T16:08:21.216Z,8.90
2022-11-05T16:10:52.204Z,8.90
2022-11-05T16:13:39.722Z,8.90
2022-11-05T16:16:16.078Z,8.80
2022-11-05T16:18:45.156Z,8.80
2022-11-05T16:21:23.282Z,8.70
2022-11-05T16:23:55.058Z,8.70
2022-11-05T16:29:38.123Z,8.60
2022-11-05T16:32:25.298Z,8.50
2022-11-05T16:35:06.876Z,8.50
2022-11-05T16:37:46.401Z,8.50
2022-11-05T16:40:25.770Z,8.40
2022-11-05T16:42:55.213Z,8.30
2022-11-05T16:45:25.095Z,8.30
2022-11-05T16:47:52.851Z,8.30
2022-11-05T16:50:29.847Z,8.30
2022-11-05T16:52:57.061Z,8.20
2022-11-05T16:55:24.256Z,8.20
2022-11-05T16:57:55.942Z,8.20
2022-11-05T17:00:24.750Z,8.10
2022-11-05T17:02:52.959Z,8.10
2022-11-05T17:05:31.258Z,8.10
2022-11-05T17:07:59.011Z,8.10
2022-11-05T17:10:26.685Z,8.00
2022-11-05T17:12:54.342Z,8.00
2022-11-05T17:15:29.293Z,7.90
2022-11-05T17:17:56.945Z,7.90
2022-11-05T17:20:45.381Z,7.90
2022-11-05T17:23:16.437Z,7.80
2022-11-05T17:25:47.897Z,7.80
2022-11-05T17:28:16.468Z,7.70
2022-11-05T17:30:51.700Z,7.70
2022-11-05T17:33:20.856Z,7.70
2022-11-05T17:35:48.103Z,7.70
2022-11-05T17:38:15.533Z,7.70
2022-11-05T17:40:42.892Z,7.60
2022-11-05T17:43:11.026Z,7.60
2022-11-05T17:45:50.466Z,7.60
2022-11-05T17:48:19.384Z,7.50
2022-11-05T17:50:49.245Z,7.50
2022-11-05T17:53:19.195Z,7.50
2022-11-05T17:55:47.346Z,7.50
2022-11-05T17:58:14.988Z,7.50
2022-11-05T18:00:44.178Z,7.40
2022-11-05T18:03:12.663Z,7.40
2022-11-05T18:05:41.038Z,7.30
2022-11-05T18:08:09.061Z,7.30
2022-11-05T18:10:41.024Z,7.30
2022-11-05T18:13:08.113Z,7.30
2022-11-05T18:15:38.057Z,7.20
2022-11-05T18:18:05.177Z,7.20
2022-11-05T18:20:32.578Z,7.10
2022-11-05T18:22:59.733Z,7.10
2022-11-05T18:25:27.147Z,7.10
2022-11-05T18:27:54.251Z,7.00
2022-11-05T18:30:21.359Z,7.00
2022-11-05T18:32:48.445Z,7.00
2022-11-05T18:35:15.497Z,6.90
2022-11-05T18:37:42.803Z,6.90
2022-11-05T18:40:12.733Z,6.90
2022-11-05T18:42:40.275Z,6.90
2022-11-05T18:45:09.734Z,6.80
2022-11-05T18:47:37.232Z,6.80
2022-11-05T18:50:06.212Z,6.80
2022-11-05T18:52:33.502Z,6.70
2022-11-05T18:55:00.626Z,6.70
2022-11-05T18:57:28.332Z,6.70
2022-11-05T18:59:55.456Z,6.60
2022-11-05T19:02:22.689Z,6.60
2022-11-05T19:05:13.853Z,6.50
2022-11-05T19:07:40.430Z,6.50
2022-11-05T19:10:08.525Z,6.50
2022-11-05T19:12:35.782Z,6.50
2022-11-05T19:15:03.497Z,6.40
2022-11-05T19:17:33.194Z,6.30
2022-11-05T19:20:01.047Z,6.30
2022-11-05T19:22:28.425Z,6.30
2022-11-05T19:24:55.619Z,6.20
2022-11-05T19:27:23.333Z,6.10
2022-11-05T19:29:50.801Z,6.10
2022-11-05T19:32:18.023Z,6.10
2022-11-05T19:34:45.201Z,6.00
2022-11-05T19:37:12.667Z,5.90
2022-11-05T19:39:41.201Z,5.90
2022-11-05T19:42:08.404Z,5.90
2022-11-05T19:44:38.949Z,5.80
2022-11-05T19:47:06.210Z,5.80
2022-11-05T19:49:33.390Z,5.80
2022-11-05T19:52:00.523Z,5.80
2022-11-05T19:54:27.664Z,5.80
2022-11-05T19:56:54.766Z,5.80
2022-11-05T19:59:21.902Z,5.70
2022-11-05T20:01:49.156Z,5.70
2022-11-05T20:04:16.461Z,5.70
2022-11-05T20:06:43.515Z,5.70
2022-11-05T20:09:22.625Z,5.60
2022-11-05T20:11:54.384Z,5.60
2022-11-05T20:14:22.950Z,5.70
2022-11-05T20:16:50.754Z,5.60
2022-11-05T20:19:20.899Z,5.60
2022-11-05T20:21:48.671Z,5.60
2022-11-05T20:24:24.245Z,5.60
2022-11-05T20:26:54.011Z,5.60
2022-11-05T20:29:21.589Z,5.60
2022-11-05T20:31:49.345Z,5.60
2022-11-05T20:34:16.466Z,5.60
2022-11-05T20:36:43.510Z,5.60
2022-11-05T20:39:12.155Z,5.50
2022-11-05T20:41:39.292Z,5.50
2022-11-05T20:44:06.405Z,5.50
2022-11-05T20:46:33.522Z,5.40
2022-11-05T20:49:00.626Z,5.30
2022-11-05T20:51:27.804Z,5.30
2022-11-05T20:53:57.492Z,5.30
2022-11-05T20:56:29.576Z,5.30
2022-11-05T20:58:59.093Z,5.30
2022-11-05T21:01:30.325Z,5.30
2022-11-05T21:03:58.326Z,5.20
2022-11-05T21:06:25.950Z,5.20
2022-11-05T21:08:53.928Z,5.20
2022-11-05T21:11:21.130Z,5.20
2022-11-05T21:13:48.913Z,5.20
2022-11-05T21:16:18.891Z,5.10
2022-11-05T21:18:46.882Z,5.10
2022-11-05T21:21:18.640Z,5.10
2022-11-05T21:23:45.928Z,5.10
2022-11-05T21:26:14.620Z,5.10
2022-11-05T21:28:42.653Z,5.00
2022-11-05T21:31:10.330Z,4.90
2022-11-05T21:33:38.088Z,4.90
2022-11-05T21:36:13.203Z,5.00
2022-11-05T21:38:41.259Z,5.00
2022-11-05T21:41:10.563Z,5.00
2022-11-05T21:43:39.481Z,4.90
2022-11-05T21:46:06.672Z,4.90
2022-11-05T21:48:34.075Z,4.90
2022-11-05T21:51:20.135Z,4.90
2022-11-05T21:54:06.175Z,4.90
2022-11-05T21:56:52.188Z,4.90
2022-11-05T21:59:41.269Z,4.90
2022-11-05T22:02:11.353Z,4.90
2022-11-05T22:04:44.816Z,4.90
2022-11-05T22:07:16.490Z,4.90
2022-11-05T22:09:44.207Z,4.90
2022-11-05T22:12:11.466Z,4.80
2022-11-05T22:14:38.950Z,4.80
2022-11-05T22:17:07.239Z,4.70
2022-11-05T22:19:35.036Z,4.70
2022-11-05T22:22:03.240Z,4.70
2022-11-05T22:24:31.868Z,4.70
2022-11-05T22:27:01.399Z,4.60
2022-11-05T22:29:29.051Z,4.60
2022-11-05T22:31:57.187Z,4.60
2022-11-05T22:34:25.644Z,4.70
2022-11-05T22:36:53.184Z,4.60
2022-11-05T22:39:21.080Z,4.60
2022-11-05T22:41:48.625Z,4.50
2022-11-05T22:44:17.227Z,4.50
2022-11-05T22:46:44.417Z,4.50
2022-11-05T22:49:11.805Z,4.40
2022-11-05T22:51:39.467Z,4.40
2022-11-05T22:54:07.527Z,4.40
2022-11-05T22:56:39.255Z,4.30
2022-11-05T22:59:08.864Z,4.30
2022-11-05T23:01:36.239Z,4.20
2022-11-05T23:04:03.653Z,4.20
2022-11-05T23:06:51.687Z,4.20
2022-11-05T23:09:42.453Z,4.20
2022-11-05T23:12:34.160Z,4.20
2022-11-05T23:15:05.784Z,4.20
2022-11-05T23:17:51.764Z,4.10
2022-11-05T23:20:40.385Z,4.10
2022-11-05T23:23:31.579Z,4.20
2022-11-05T23:26:21.953Z,4.10
2022-11-05T23:28:49.014Z,4.10
2022-11-05T23:31:34.967Z,4.10
2022-11-05T23:34:02.036Z,4.10
2022-11-05T23:36:47.576Z,4.10
2022-11-05T23:39:14.794Z,4.10
2022-11-05T23:42:00.798Z,4.10
2022-11-05T23:44:46.121Z,4.10
2022-11-05T23:47:32.328Z,4.00
2022-11-05T23:49:59.480Z,4.10
2022-11-05T23:52:26.638Z,4.10
2022-11-05T23:54:53.693Z,4.10
2022-11-05T23:57:20.788Z,4.10
2022-11-05T23:59:47.955Z,4.10
